createdAt,value
2018-06-18T00:00:37.279Z,12.67
2018-06-18T00:03:06.753Z,7.43
2018-06-18T00:05:35.626Z,10.47
2018-06-18T00:08:04.095Z,11.17
2018-06-18T00:10:32.569Z,9.00
2018-06-18T00:13:02.130Z,11.07
2018-06-18T00:15:31.470Z,6.83
2018-06-18T00:18:02.627Z,11.40
2018-06-18T00:20:32.588Z,8.20
2018-06-18T00:23:03.584Z,9.77
2018-06-18T00:25:33.881Z,9.87
2018-06-18T00:28:02.891Z,6.33
2018-06-18T00:30:33.243Z,8.97
2018-06-18T00:33:03.867Z,9.23
2018-06-18T00:35:32.995Z,13.57
2018-06-18T00:38:02.627Z,10.77
2018-06-18T00:40:32.118Z,7.17
2018-06-18T00:43:00.899Z,9.83
2018-06-18T00:45:31.424Z,10.10
2018-06-18T00:48:04.467Z,11.70
2018-06-18T00:50:34.538Z,9.47
2018-06-18T00:53:04.545Z,9.13
2018-06-18T00:55:46.218Z,10.07
2018-06-18T00:58:17.397Z,12.90
2018-06-18T01:00:48.436Z,8.17
2018-06-18T01:03:18.934Z,7.63
2018-06-18T01:05:47.782Z,8.23
2018-06-18T01:08:18.314Z,10.10
2018-06-18T01:10:49.022Z,11.20
2018-06-18T01:13:19.306Z,10.43
2018-06-18T01:15:48.960Z,9.93
2018-06-18T01:18:18.764Z,9.90
2018-06-18T01:20:47.834Z,8.53
2018-06-18T01:23:56.525Z,13.80
2018-06-18T01:26:25.839Z,6.93
2018-06-18T01:28:55.503Z,9.00
2018-06-18T01:31:25.146Z,9.20
2018-06-18T01:33:56.176Z,9.47
2018-06-18T01:36:26.667Z,8.97
2018-06-18T01:38:56.281Z,10.17
2018-06-18T01:41:26.642Z,8.40
2018-06-18T01:43:56.097Z,12.27
2018-06-18T01:46:27.748Z,8.53
2018-06-18T01:48:56.601Z,7.57
2018-06-18T01:51:25.162Z,8.70
2018-06-18T01:53:54.405Z,10.77
2018-06-18T01:56:23.101Z,8.70
2018-06-18T01:58:51.541Z,11.17
2018-06-18T02:01:21.504Z,8.30
2018-06-18T02:03:51.115Z,12.50
2018-06-18T02:06:19.855Z,9.47
2018-06-18T02:08:50.461Z,10.37
2018-06-18T02:11:19.551Z,9.50
2018-06-18T02:13:50.242Z,9.97
2018-06-18T02:16:19.719Z,11.83
2018-06-18T02:18:50.139Z,8.27
2018-06-18T02:21:20.085Z,14.27
2018-06-18T02:23:50.734Z,12.20
2018-06-18T02:26:20.570Z,10.10
2018-06-18T02:28:55.293Z,8.33
2018-06-18T02:31:29.548Z,8.23
2018-06-18T02:34:04.617Z,12.00
2018-06-18T02:38:42.555Z,8.30
2018-06-18T02:41:11.943Z,11.17
2018-06-18T02:43:40.627Z,7.20
2018-06-18T02:46:10.626Z,12.40
2018-06-18T02:48:40.806Z,7.70
2018-06-18T02:51:11.130Z,13.80
2018-06-18T02:53:41.362Z,10.10
2018-06-18T02:56:10.123Z,9.90
2018-06-18T02:58:38.867Z,11.73
2018-06-18T03:01:07.952Z,7.83
2018-06-18T03:03:37.586Z,9.13
2018-06-18T03:06:07.602Z,8.40
2018-06-18T03:08:37.512Z,11.00
2018-06-18T03:11:07.210Z,9.70
2018-06-18T03:13:36.054Z,9.67
2018-06-18T03:16:05.047Z,9.57
2018-06-18T03:18:40.934Z,10.83
2018-06-18T03:21:16.427Z,13.33
2018-06-18T03:25:51.790Z,8.53
2018-06-18T03:29:30.094Z,11.37
2018-06-18T03:32:00.610Z,12.83
2018-06-18T03:34:29.374Z,10.63
2018-06-18T03:36:59.729Z,9.57
2018-06-18T03:39:29.856Z,10.50
2018-06-18T03:41:58.731Z,8.83
2018-06-18T03:44:34.698Z,14.83
2018-06-18T03:47:12.592Z,11.97
2018-06-18T03:50:12.497Z,9.03
2018-06-18T03:52:41.750Z,12.90
2018-06-18T03:55:16.346Z,10.17
2018-06-18T03:57:47.950Z,10.57
2018-06-18T04:00:18.670Z,11.47
2018-06-18T04:02:57.022Z,15.20
2018-06-18T04:05:31.973Z,10.73
2018-06-18T04:08:02.802Z,11.80
2018-06-18T04:10:40.206Z,7.47
2018-06-18T04:13:10.383Z,14.57
2018-06-18T04:15:40.238Z,15.93
2018-06-18T04:18:09.186Z,11.00
2018-06-18T04:20:45.127Z,11.13
2018-06-18T04:23:14.746Z,13.37
2018-06-18T04:25:44.938Z,9.60
2018-06-18T04:28:15.474Z,17.40
2018-06-18T04:30:46.226Z,13.30
2018-06-18T04:33:19.329Z,12.60
2018-06-18T04:35:49.026Z,11.30
2018-06-18T04:38:18.250Z,12.67
2018-06-18T04:40:48.103Z,13.57
2018-06-18T04:43:24.503Z,12.37
2018-06-18T04:46:00.326Z,10.43
2018-06-18T04:48:34.978Z,12.57
2018-06-18T04:51:05.738Z,12.17
2018-06-18T04:53:37.082Z,12.70
2018-06-18T04:56:06.947Z,14.97
2018-06-18T04:58:37.078Z,16.17
2018-06-18T05:01:29.098Z,11.87
2018-06-18T05:04:06.255Z,10.93
2018-06-18T05:06:40.255Z,11.40
2018-06-18T05:09:35.091Z,9.73
2018-06-18T05:12:04.181Z,9.20
2018-06-18T05:14:33.449Z,12.63
2018-06-18T05:17:02.266Z,12.20
2018-06-18T05:19:33.771Z,9.43
2018-06-18T05:22:03.559Z,19.27
2018-06-18T05:24:33.403Z,10.33
2018-06-18T05:27:02.046Z,16.17
2018-06-18T05:29:31.549Z,16.83
2018-06-18T05:32:05.051Z,12.30
2018-06-18T05:34:34.454Z,8.93
2018-06-18T05:37:08.377Z,13.47
2018-06-18T05:39:44.702Z,14.77
2018-06-18T05:42:16.190Z,12.37
2018-06-18T05:44:51.131Z,13.17
2018-06-18T05:47:25.607Z,11.17
2018-06-18T05:49:54.774Z,18.73
2018-06-18T05:52:23.814Z,12.83
2018-06-18T05:54:52.682Z,15.27
2018-06-18T05:57:29.890Z,10.73
2018-06-18T05:59:59.586Z,17.93
2018-06-18T06:02:32.416Z,12.57
2018-06-18T06:05:01.277Z,11.67
2018-06-18T06:07:33.898Z,16.70
2018-06-18T06:10:03.238Z,16.37
2018-06-18T06:12:33.567Z,15.60
2018-06-18T06:15:07.634Z,13.73
2018-06-18T06:17:38.706Z,18.17
2018-06-18T06:20:09.007Z,16.07
2018-06-18T06:22:39.607Z,16.13
2018-06-18T06:25:11.754Z,11.70
2018-06-18T06:27:41.466Z,17.27
2018-06-18T06:30:11.514Z,13.93
2018-06-18T06:32:41.704Z,12.40
2018-06-18T06:35:32.015Z,11.60
2018-06-18T06:38:01.387Z,13.40
2018-06-18T06:40:30.511Z,9.83
2018-06-18T06:43:02.121Z,13.50
2018-06-18T06:45:33.927Z,15.77
2018-06-18T06:48:05.071Z,18.20
2018-06-18T06:50:34.805Z,18.93
2018-06-18T06:53:06.841Z,17.50
2018-06-18T06:55:38.038Z,15.53
2018-06-18T06:58:09.210Z,14.83
2018-06-18T07:00:39.162Z,18.03
2018-06-18T07:03:08.963Z,8.70
2018-06-18T07:05:39.074Z,12.37
2018-06-18T07:08:09.611Z,11.57
2018-06-18T07:10:38.599Z,9.57
2018-06-18T07:13:09.873Z,12.13
2018-06-18T07:15:39.662Z,10.40
2018-06-18T07:18:10.190Z,15.47
2018-06-18T07:20:40.934Z,22.70
2018-06-18T07:23:10.488Z,10.37
2018-06-18T07:25:40.162Z,11.50
2018-06-18T07:28:10.086Z,12.57
2018-06-18T07:30:40.630Z,9.23
2018-06-18T07:33:10.593Z,13.13
2018-06-18T07:35:39.836Z,10.77
2018-06-18T07:38:10.453Z,10.70
2018-06-18T07:40:39.914Z,13.00
2018-06-18T07:43:09.566Z,9.70
2018-06-18T07:45:38.440Z,11.67
2018-06-18T07:48:09.964Z,12.80
2018-06-18T07:50:39.722Z,10.27
2018-06-18T07:53:09.430Z,10.90
2018-06-18T07:55:39.339Z,7.07
2018-06-18T07:58:09.306Z,7.50
2018-06-18T08:00:39.217Z,12.33
2018-06-18T08:03:07.699Z,8.23
2018-06-18T08:05:37.651Z,8.97
2018-06-18T08:08:06.666Z,7.87
2018-06-18T08:10:36.895Z,13.07
2018-06-18T08:13:07.262Z,7.90
2018-06-18T08:15:36.435Z,12.07
2018-06-18T08:18:06.459Z,14.03
2018-06-18T08:20:37.852Z,8.43
2018-06-18T08:23:08.766Z,12.10
2018-06-18T08:25:39.476Z,11.30
2018-06-18T08:28:07.966Z,10.47
2018-06-18T08:30:37.384Z,12.37
2018-06-18T08:33:07.894Z,7.77
2018-06-18T08:35:37.542Z,9.30
2018-06-18T08:38:08.287Z,10.67
2018-06-18T08:40:37.817Z,14.70
2018-06-18T08:43:07.785Z,13.93
2018-06-18T08:45:37.055Z,8.50
2018-06-18T08:48:06.675Z,7.23
2018-06-18T08:50:41.891Z,9.40
2018-06-18T08:53:16.118Z,9.40
2018-06-18T08:55:51.407Z,14.10
2018-06-18T08:58:27.123Z,7.17
2018-06-18T09:01:02.091Z,9.47
2018-06-18T09:03:37.871Z,8.40
2018-06-18T09:06:06.376Z,9.13
2018-06-18T09:08:41.610Z,6.77
2018-06-18T09:11:10.102Z,6.33
2018-06-18T09:13:40.528Z,9.00
2018-06-18T09:16:11.398Z,8.47
2018-06-18T09:18:41.697Z,6.93
2018-06-18T09:21:10.722Z,10.40
2018-06-18T09:23:41.859Z,5.80
2018-06-18T09:26:11.725Z,6.43
2018-06-18T09:28:41.981Z,7.90
2018-06-18T09:31:10.509Z,6.97
2018-06-18T09:33:43.327Z,8.17
2018-06-18T09:36:13.622Z,6.97
2018-06-18T09:38:43.671Z,7.70
2018-06-18T09:41:12.979Z,6.23
2018-06-18T09:43:42.277Z,5.40
2018-06-18T09:46:11.204Z,6.00
2018-06-18T09:48:45.030Z,5.27
2018-06-18T09:51:19.821Z,5.67
2018-06-18T09:53:56.738Z,6.93
2018-06-18T09:56:32.323Z,9.40
2018-06-18T09:59:07.746Z,5.27
2018-06-18T10:02:09.768Z,7.90
2018-06-18T10:04:39.757Z,5.10
2018-06-18T10:07:11.006Z,8.17
2018-06-18T10:09:40.526Z,4.73
2018-06-18T10:12:12.374Z,5.00
2018-06-18T10:14:40.910Z,8.23
2018-06-18T10:17:10.226Z,6.00
2018-06-18T10:19:40.860Z,7.67
2018-06-18T10:22:10.519Z,4.47
2018-06-18T10:24:40.593Z,5.10
2018-06-18T10:27:10.890Z,5.27
2018-06-18T10:29:40.269Z,5.40
2018-06-18T10:32:15.322Z,6.43
2018-06-18T10:34:51.118Z,6.17
2018-06-18T10:37:25.722Z,10.13
2018-06-18T10:40:01.331Z,10.23
2018-06-18T10:42:36.854Z,4.97
2018-06-18T10:45:07.158Z,5.43
2018-06-18T10:47:36.443Z,8.07
2018-06-18T10:50:06.738Z,6.07
2018-06-18T10:53:42.508Z,6.07
2018-06-18T10:56:12.711Z,11.33
2018-06-18T10:58:44.151Z,6.50
2018-06-18T11:01:21.242Z,6.47
2018-06-18T11:03:52.171Z,6.57
2018-06-18T11:06:27.232Z,11.90
2018-06-18T11:08:57.346Z,10.50
2018-06-18T11:11:28.702Z,6.50
2018-06-18T11:13:58.039Z,7.43
2018-06-18T11:16:28.927Z,11.67
2018-06-18T11:19:02.835Z,6.93
2018-06-18T11:21:39.435Z,6.80
2018-06-18T11:24:14.150Z,11.07
2018-06-18T11:26:48.705Z,8.10
2018-06-18T11:29:19.055Z,6.87
2018-06-18T11:31:50.347Z,8.93
2018-06-18T11:34:19.932Z,8.90
2018-06-18T11:36:49.896Z,6.97
2018-06-18T11:39:19.470Z,6.97
2018-06-18T11:41:50.458Z,5.87
2018-06-18T11:44:21.618Z,10.40
2018-06-18T11:46:51.169Z,8.17
2018-06-18T11:49:22.068Z,6.97
2018-06-18T11:51:52.111Z,5.97
2018-06-18T11:54:21.514Z,5.30
2018-06-18T11:56:51.477Z,5.27
2018-06-18T11:59:27.011Z,5.93
2018-06-18T12:02:03.299Z,4.63
2018-06-18T12:04:38.398Z,5.93
2018-06-18T12:07:13.311Z,4.87
2018-06-18T12:09:43.626Z,5.83
2018-06-18T12:12:13.080Z,6.13
2018-06-18T12:14:42.931Z,5.90
2018-06-18T12:17:12.893Z,6.57
2018-06-18T12:19:42.488Z,7.77
2018-06-18T12:22:12.301Z,5.00
2018-06-18T12:24:42.619Z,6.00
2018-06-18T12:27:16.395Z,4.23
2018-06-18T12:29:46.254Z,7.20
2018-06-18T12:32:17.715Z,6.33
2018-06-18T12:34:47.995Z,4.07
2018-06-18T12:37:18.876Z,4.00
2018-06-18T12:39:51.477Z,4.57
2018-06-18T12:42:20.695Z,5.23
2018-06-18T12:44:56.125Z,19.07
2018-06-18T12:47:31.449Z,3.87
2018-06-18T12:50:06.973Z,6.67
2018-06-18T12:52:41.764Z,6.73
2018-06-18T12:55:17.325Z,2.87
2018-06-18T12:57:47.676Z,5.07
2018-06-18T13:00:17.907Z,4.17
2018-06-18T13:02:52.114Z,5.73
2018-06-18T13:05:22.522Z,5.27
2018-06-18T13:07:52.302Z,3.77
2018-06-18T13:10:20.754Z,5.07
2018-06-18T13:12:50.220Z,5.13
2018-06-18T13:15:21.550Z,4.73
2018-06-18T13:17:52.158Z,3.83
2018-06-18T13:20:21.604Z,6.73
2018-06-18T13:22:54.975Z,6.40
2018-06-18T13:25:26.760Z,3.47
2018-06-18T13:28:01.265Z,6.93
2018-06-18T13:30:32.452Z,5.77
2018-06-18T13:33:02.333Z,7.67
2018-06-18T13:35:34.002Z,5.93
2018-06-18T13:38:07.803Z,5.50
2018-06-18T13:40:41.983Z,8.17
2018-06-18T13:43:18.250Z,7.27
2018-06-18T13:45:51.932Z,8.20
2018-06-18T13:48:26.059Z,7.70
2018-06-18T13:50:54.541Z,8.50
2018-06-18T13:53:23.862Z,8.43
2018-06-18T13:55:54.382Z,7.43
2018-06-18T13:58:26.366Z,12.50
2018-06-18T14:00:55.956Z,8.50
2018-06-18T14:03:27.590Z,7.33
2018-06-18T14:05:57.578Z,8.77
2018-06-18T14:08:26.084Z,11.93
2018-06-18T14:10:55.023Z,7.17
2018-06-18T14:13:23.914Z,9.70
2018-06-18T14:15:52.398Z,11.17
2018-06-18T14:18:20.895Z,7.87
2018-06-18T14:20:53.669Z,7.63
2018-06-18T14:23:22.169Z,8.13
2018-06-18T14:25:51.831Z,8.73
2018-06-18T14:28:21.618Z,8.93
2018-06-18T14:31:00.436Z,8.13
2018-06-18T14:33:35.996Z,12.07
2018-06-18T14:36:09.945Z,7.07
2018-06-18T14:38:43.704Z,9.43
2018-06-18T14:41:12.201Z,8.83
2018-06-18T14:43:41.606Z,8.77
2018-06-18T14:46:10.677Z,7.27
2018-06-18T14:48:39.312Z,7.77
2018-06-18T14:51:07.805Z,6.83
2018-06-18T14:53:37.078Z,12.87
2018-06-18T14:56:25.946Z,8.13
2018-06-18T14:59:21.859Z,7.17
2018-06-18T15:01:50.520Z,6.97
2018-06-18T15:04:19.226Z,7.67
2018-06-18T15:06:48.147Z,10.77
2018-06-18T15:09:16.761Z,9.20
2018-06-18T15:11:45.409Z,7.60
2018-06-18T15:14:14.561Z,9.37
2018-06-18T15:16:43.311Z,9.70
2018-06-18T15:19:11.853Z,8.27
2018-06-18T15:21:45.126Z,8.73
2018-06-18T15:24:18.858Z,8.60
2018-06-18T15:26:48.154Z,8.80
2018-06-18T15:29:16.699Z,12.80
2018-06-18T15:31:47.435Z,10.33
2018-06-18T15:34:15.930Z,9.33
2018-06-18T15:36:45.463Z,9.93
2018-06-18T15:39:14.792Z,9.07
2018-06-18T15:41:43.588Z,8.60
2018-06-18T15:44:13.081Z,9.00
2018-06-18T15:46:41.578Z,12.93
2018-06-18T15:50:12.194Z,7.50
2018-06-18T15:52:40.766Z,8.43
2018-06-18T15:55:11.074Z,9.10
2018-06-18T15:57:39.650Z,8.03
2018-06-18T16:00:08.454Z,7.90
2018-06-18T16:02:38.027Z,10.20
2018-06-18T16:05:06.931Z,8.90
2018-06-18T16:07:36.273Z,7.73
2018-06-18T16:10:04.843Z,7.83
2018-06-18T16:12:33.328Z,8.23
2018-06-18T16:15:01.802Z,10.57
2018-06-18T16:17:30.285Z,8.20
2018-06-18T16:19:58.775Z,7.70
2018-06-18T16:22:27.298Z,8.77
2018-06-18T16:24:55.975Z,9.97
2018-06-18T16:27:24.489Z,8.47
2018-06-18T16:29:53.417Z,9.03
2018-06-18T16:32:22.871Z,8.87
2018-06-18T16:34:51.638Z,9.63
2018-06-18T16:37:21.266Z,11.50
2018-06-18T16:39:50.196Z,9.40
2018-06-18T16:42:18.684Z,9.93
2018-06-18T16:44:47.134Z,10.90
2018-06-18T16:47:15.600Z,11.00
2018-06-18T16:49:48.503Z,10.67
2018-06-18T16:52:16.974Z,11.20
2018-06-18T16:54:45.469Z,11.03
2018-06-18T16:57:13.947Z,10.57
2018-06-18T16:59:42.491Z,11.63
2018-06-18T17:02:12.295Z,12.47
2018-06-18T17:04:41.569Z,12.33
2018-06-18T17:07:10.596Z,11.40
2018-06-18T17:09:39.521Z,12.60
2018-06-18T17:12:08.995Z,14.97
2018-06-18T17:14:37.456Z,12.10
2018-06-18T17:17:05.999Z,13.50
2018-06-18T17:19:34.523Z,14.17
2018-06-18T17:22:04.107Z,13.27
2018-06-18T17:24:33.231Z,12.40
2018-06-18T17:27:03.345Z,13.30
2018-06-18T17:29:33.504Z,12.40
2018-06-18T17:32:02.413Z,12.73
2018-06-18T17:34:40.416Z,14.07
2018-06-18T17:37:13.447Z,12.97
2018-06-18T17:42:39.395Z,12.07
2018-06-18T17:45:12.528Z,14.93
2018-06-18T17:47:41.316Z,10.97
2018-06-18T17:50:11.619Z,12.30
2018-06-18T17:52:53.086Z,12.87
2018-06-18T17:55:23.274Z,11.83
2018-06-18T17:57:54.834Z,11.43
2018-06-18T18:00:25.675Z,10.70
2018-06-18T18:02:57.186Z,11.50
2018-06-18T18:05:27.350Z,10.10
2018-06-18T18:07:57.677Z,10.73
2018-06-18T18:10:26.450Z,11.63
2018-06-18T18:12:55.703Z,10.53
2018-06-18T18:15:25.088Z,11.20
2018-06-18T18:17:54.027Z,10.10
2018-06-18T18:20:24.475Z,12.07
2018-06-18T18:22:54.668Z,11.07
2018-06-18T18:25:23.599Z,10.87
2018-06-18T18:27:53.584Z,10.97
2018-06-18T18:30:23.454Z,12.13
2018-06-18T18:32:53.638Z,10.90
2018-06-18T18:35:22.830Z,10.80
2018-06-18T18:37:52.477Z,10.47
2018-06-18T18:40:22.179Z,11.27
2018-06-18T18:42:51.622Z,10.30
2018-06-18T18:45:23.032Z,10.37
2018-06-18T18:47:53.246Z,10.87
2018-06-18T18:50:22.067Z,10.53
2018-06-18T18:52:51.558Z,10.90
2018-06-18T18:55:26.624Z,10.83
2018-06-18T18:58:07.298Z,10.10
2018-06-18T19:00:38.434Z,11.03
2018-06-18T19:03:07.786Z,9.20
2018-06-18T19:05:36.625Z,10.10
2018-06-18T19:08:07.059Z,10.17
2018-06-18T19:10:37.942Z,9.30
2018-06-18T19:13:16.037Z,12.13
2018-06-18T19:15:46.257Z,11.47
2018-06-18T19:18:18.098Z,13.17
2018-06-18T19:20:52.054Z,12.33
2018-06-18T19:23:22.423Z,12.30
2018-06-18T19:25:50.888Z,12.13
2018-06-18T19:28:20.618Z,11.13
2018-06-18T19:30:57.251Z,11.63
2018-06-18T19:33:31.779Z,10.90
2018-06-18T19:36:00.948Z,12.10
2018-06-18T19:38:31.326Z,12.03
2018-06-18T19:41:01.871Z,13.67
2018-06-18T19:43:30.342Z,11.30
2018-06-18T19:46:01.049Z,12.57
2018-06-18T19:48:41.454Z,12.17
2018-06-18T19:51:10.200Z,13.80
2018-06-18T19:53:39.503Z,12.87
2018-06-18T19:56:08.011Z,12.63
2018-06-18T19:58:38.158Z,12.83
2018-06-18T20:01:08.107Z,13.90
2018-06-18T20:03:36.803Z,15.20
2018-06-18T20:06:05.782Z,15.47
2018-06-18T20:08:34.298Z,14.97
2018-06-18T20:11:02.781Z,15.13
2018-06-18T20:13:31.674Z,15.20
2018-06-18T20:16:00.118Z,16.00
2018-06-18T20:18:28.571Z,17.50
2018-06-18T20:20:57.048Z,18.33
2018-06-18T20:23:26.650Z,17.13
2018-06-18T20:26:06.601Z,16.30
2018-06-18T20:28:36.072Z,15.30
2018-06-18T20:31:05.260Z,14.60
2018-06-18T20:33:35.738Z,14.03
2018-06-18T20:36:07.254Z,14.33
2018-06-18T20:38:36.749Z,14.20
2018-06-18T20:41:05.200Z,15.33
2018-06-18T20:44:07.776Z,14.77
2018-06-18T20:46:36.254Z,16.07
2018-06-18T20:49:05.438Z,16.07
2018-06-18T20:51:33.922Z,18.77
2018-06-18T20:54:02.399Z,21.40
2018-06-18T20:56:31.443Z,24.67
2018-06-18T20:58:59.987Z,21.50
2018-06-18T21:01:28.465Z,22.07
2018-06-18T21:03:57.158Z,20.30
2018-06-18T21:06:25.963Z,17.70
2018-06-18T21:08:54.929Z,15.57
2018-06-18T21:11:23.448Z,16.47
2018-06-18T21:13:52.380Z,16.40
2018-06-18T21:16:20.866Z,16.00
2018-06-18T21:18:49.662Z,17.80
2018-06-18T21:21:18.115Z,16.50
2018-06-18T21:23:46.907Z,16.27
2018-06-18T21:26:15.767Z,14.70
2018-06-18T21:28:44.231Z,13.87
2018-06-18T21:31:12.778Z,11.13
2018-06-18T21:33:42.413Z,10.93
2018-06-18T21:36:10.896Z,9.83
2018-06-18T21:38:41.595Z,11.50
2018-06-18T21:41:10.055Z,9.47
2018-06-18T21:43:38.502Z,12.30
2018-06-18T21:46:07.247Z,9.43
2018-06-18T21:48:36.074Z,10.13
2018-06-18T21:51:05.091Z,10.30
2018-06-18T21:53:33.567Z,10.37
2018-06-18T21:56:02.626Z,10.30
2018-06-18T21:58:31.074Z,9.47
2018-06-18T22:01:01.025Z,9.57
2018-06-18T22:03:29.522Z,9.40
2018-06-18T22:05:58.083Z,10.40
2018-06-18T22:08:28.049Z,11.10
2018-06-18T22:10:57.370Z,10.63
2018-06-18T22:13:25.835Z,11.07
2018-06-18T22:15:54.330Z,10.53
2018-06-18T22:18:22.838Z,10.50
2018-06-18T22:20:52.006Z,10.83
2018-06-18T22:23:20.897Z,10.80
2018-06-18T22:25:49.726Z,10.73
2018-06-18T22:28:25.055Z,10.60
2018-06-18T22:30:53.886Z,11.70
2018-06-18T22:33:22.349Z,10.83
2018-06-18T22:35:51.261Z,12.97
2018-06-18T22:38:19.739Z,9.70
2018-06-18T22:40:48.198Z,9.60
2018-06-18T22:43:16.697Z,10.83
2018-06-18T22:45:45.178Z,10.80
2018-06-18T22:48:13.682Z,10.70
2018-06-18T22:50:42.506Z,11.30
2018-06-18T22:53:11.011Z,11.50
2018-06-18T22:55:40.027Z,11.33
2018-06-18T22:58:08.860Z,11.70
2018-06-18T23:00:38.677Z,11.67
2018-06-18T23:03:07.207Z,11.80
2018-06-18T23:05:42.714Z,11.30
2018-06-18T23:08:11.430Z,11.97
2018-06-18T23:10:40.115Z,11.60
2018-06-18T23:13:08.914Z,11.50
2018-06-18T23:15:37.378Z,12.27
2018-06-18T23:18:05.906Z,12.73
2018-06-18T23:20:34.370Z,12.87
2018-06-18T23:23:03.234Z,13.30
2018-06-18T23:25:31.691Z,12.67
2018-06-18T23:28:00.144Z,13.43
2018-06-18T23:30:28.636Z,13.60
2018-06-18T23:32:57.075Z,13.23
2018-06-18T23:35:25.546Z,14.00
2018-06-18T23:37:54.610Z,13.60
2018-06-18T23:40:23.302Z,13.90
2018-06-18T23:42:51.746Z,14.60
2018-06-18T23:45:20.214Z,14.33
2018-06-18T23:47:48.700Z,14.73
2018-06-18T23:50:17.145Z,16.17
2018-06-18T23:52:45.770Z,16.23
2018-06-18T23:55:14.299Z,15.80
2018-06-18T23:57:42.790Z,16.10
